メインページ
METAR-TAF:

METAR-TAF

空港 :

但馬飛行場

但馬空港, 日本

緯度: 35-31N, 経度: 134-48E, 海抜: 210m

現時点の気象観測

当レポートは13時間18分前の09:00(UTC)に作成
の風 1kt
気温 13°C
湿度 58%
気圧 1019 hPa
視程10km以上
高度3000ftの雲はほとんどない
高度12000ftの雲は散在している
高度15000ftの千切れ雲あり

METAR: RJBT 160900Z 36001KT 9999 FEW030 SCT120 BKN150 13/05 Q1019

時間: 07:18 (22:18 UTC)


TAF: 見つかりません

4,000以上の空港の気象観測と天気予報(METAR報とTAF報)

利用可能な観測所は地図上に黄色い丸と赤い丸で示す。

丸の上にカーソルを重ねると観測所名を参照できる。

次にクリックすると気象観測と天気予報を参照できる。

マップの切り替え:黒色「×」印の緑ボタンをクリックして拡大、「-」印の緑ボタンをクリックして縮小、緑色の三角印をクリックして隣りの地図に切り替え


METAR-TAF: